createdAt,value
2018-01-19T00:02:25.010Z,72.40
2018-01-19T00:04:54.538Z,72.80
2018-01-19T00:07:23.331Z,72.80
2018-01-19T00:09:52.061Z,73.40
2018-01-19T00:12:20.821Z,73.70
2018-01-19T00:14:49.629Z,74.10
2018-01-19T00:17:18.365Z,74.40
2018-01-19T00:19:47.132Z,74.60
2018-01-19T00:22:16.734Z,74.80
2018-01-19T00:24:46.178Z,74.80
2018-01-19T00:27:14.967Z,74.70
2018-01-19T00:29:44.038Z,74.90
2018-01-19T00:32:13.442Z,75.50
2018-01-19T00:34:42.269Z,75.40
2018-01-19T00:37:11.044Z,76.40
2018-01-19T00:39:39.795Z,76.20
2018-01-19T00:42:08.737Z,75.90
2018-01-19T00:44:37.579Z,76.20
2018-01-19T00:47:06.376Z,77.30
2018-01-19T00:49:35.141Z,77.00
2018-01-19T00:52:03.945Z,78.70
2018-01-19T00:54:33.466Z,79.70
2018-01-19T00:57:02.304Z,79.70
2018-01-19T00:59:31.128Z,80.60
2018-01-19T01:02:00.710Z,84.10
2018-01-19T01:04:29.543Z,84.10
2018-01-19T01:06:59.117Z,80.00
2018-01-19T01:09:27.907Z,80.00
2018-01-19T01:11:56.658Z,79.90
2018-01-19T01:14:25.445Z,81.60
2018-01-19T01:16:54.176Z,81.90
2018-01-19T01:19:23.713Z,82.50
2018-01-19T01:21:53.242Z,81.00
2018-01-19T01:24:21.982Z,81.00
2018-01-19T01:26:50.403Z,81.00
2018-01-19T01:29:19.956Z,82.20
2018-01-19T01:31:48.721Z,82.20
2018-01-19T01:34:17.494Z,82.50
2018-01-19T01:36:46.312Z,83.20
2018-01-19T01:39:15.082Z,83.10
2018-01-19T01:41:43.890Z,82.70
2018-01-19T01:44:12.688Z,82.60
2018-01-19T01:46:41.415Z,82.70
2018-01-19T01:49:11.936Z,83.50
2018-01-19T01:51:41.474Z,83.30
2018-01-19T01:54:10.386Z,83.20
2018-01-19T01:56:39.214Z,83.70
2018-01-19T01:59:08.018Z,84.50
2018-01-19T02:01:37.573Z,83.80
2018-01-19T02:04:06.378Z,83.70
2018-01-19T02:06:35.141Z,82.50
2018-01-19T02:09:03.761Z,81.60
2018-01-19T02:11:32.637Z,81.40
2018-01-19T02:14:01.474Z,81.10
2018-01-19T02:16:31.054Z,80.80
2018-01-19T02:18:59.829Z,80.80
2018-01-19T02:21:28.666Z,80.70
2018-01-19T02:23:58.175Z,80.60
2018-01-19T02:26:27.763Z,81.50
2018-01-19T02:28:56.317Z,81.40
2018-01-19T02:31:25.092Z,81.90
2018-01-19T02:33:54.040Z,80.90
2018-01-19T02:36:23.589Z,82.60
2018-01-19T02:38:52.347Z,82.60
2018-01-19T02:41:21.142Z,83.60
2018-01-19T02:43:49.953Z,83.80
2018-01-19T02:46:18.754Z,84.10
2018-01-19T02:48:47.569Z,84.00
2018-01-19T02:51:16.344Z,84.30
2018-01-19T02:53:45.128Z,84.90
2018-01-19T02:56:13.973Z,85.00
2018-01-19T02:58:43.494Z,85.70
2018-01-19T03:01:12.274Z,85.70
2018-01-19T03:03:41.084Z,85.90
2018-01-19T03:06:09.870Z,86.00
2018-01-19T03:08:38.643Z,86.40
2018-01-19T03:11:07.446Z,86.60
2018-01-19T03:13:36.221Z,86.70
2018-01-19T03:16:04.958Z,86.60
2018-01-19T03:18:33.716Z,86.10
2018-01-19T03:21:02.478Z,85.80
2018-01-19T03:23:32.052Z,85.60
2018-01-19T03:26:00.795Z,85.60
2018-01-19T03:28:29.597Z,86.20
2018-01-19T03:30:58.433Z,86.60
2018-01-19T03:33:27.185Z,86.70
2018-01-19T03:35:55.983Z,86.60
2018-01-19T03:38:24.794Z,86.80
2018-01-19T03:40:53.631Z,87.00
2018-01-19T03:43:22.431Z,87.40
2018-01-19T03:45:51.199Z,87.40
2018-01-19T03:48:20.008Z,87.30
2018-01-19T03:50:48.799Z,87.70
2018-01-19T03:53:17.549Z,88.40
2018-01-19T03:55:46.134Z,88.20
2018-01-19T03:58:15.677Z,87.70
2018-01-19T04:00:44.410Z,87.70
2018-01-19T04:03:13.223Z,87.90
2018-01-19T04:05:42.631Z,88.10
2018-01-19T04:08:12.139Z,88.60
2018-01-19T04:10:41.698Z,88.90
2018-01-19T04:13:10.434Z,88.80
2018-01-19T04:15:39.227Z,89.20
2018-01-19T04:18:07.950Z,88.40
2018-01-19T04:20:36.726Z,89.00
2018-01-19T04:23:05.485Z,88.90
2018-01-19T04:25:34.207Z,89.20
2018-01-19T04:28:02.974Z,89.50
2018-01-19T04:30:31.778Z,89.50
2018-01-19T04:33:00.182Z,90.00
2018-01-19T04:35:28.914Z,90.30
2018-01-19T04:37:58.378Z,90.10
2018-01-19T04:40:26.915Z,90.10
2018-01-19T04:42:56.441Z,90.20
2018-01-19T04:45:25.179Z,90.20
2018-01-19T04:47:53.706Z,90.50
2018-01-19T04:50:22.422Z,90.40
2018-01-19T04:52:51.136Z,90.40
2018-01-19T04:55:19.845Z,90.70
2018-01-19T04:57:49.184Z,90.80
2018-01-19T05:00:17.936Z,90.80
2018-01-19T05:02:46.673Z,90.70
2018-01-19T05:05:15.394Z,90.70
2018-01-19T05:07:44.102Z,90.90
2018-01-19T05:10:13.619Z,90.90
2018-01-19T05:12:43.171Z,90.90
2018-01-19T05:15:11.902Z,90.90
2018-01-19T05:17:41.386Z,91.00
2018-01-19T05:20:10.144Z,91.00
2018-01-19T05:22:38.843Z,91.00
2018-01-19T05:25:07.592Z,91.00
2018-01-19T05:27:36.381Z,90.90
2018-01-19T05:30:05.148Z,90.90
2018-01-19T05:32:33.887Z,91.00
2018-01-19T05:35:02.650Z,90.90
2018-01-19T05:37:31.367Z,90.90
2018-01-19T05:40:00.126Z,91.10
2018-01-19T05:42:28.896Z,91.40
2018-01-19T05:44:57.731Z,91.50
2018-01-19T05:47:27.371Z,91.60
2018-01-19T05:49:56.118Z,91.60
2018-01-19T05:52:24.927Z,91.60
2018-01-19T05:54:53.816Z,91.90
2018-01-19T05:57:22.556Z,91.80
2018-01-19T05:59:52.158Z,91.80
2018-01-19T06:02:20.976Z,91.80
2018-01-19T06:04:49.760Z,91.90
2018-01-19T06:07:18.462Z,92.10
2018-01-19T06:09:47.246Z,91.90
2018-01-19T06:12:15.982Z,91.70
2018-01-19T06:14:44.690Z,91.70
2018-01-19T06:17:14.175Z,91.70
2018-01-19T06:19:43.117Z,91.80
2018-01-19T06:22:11.883Z,92.00
2018-01-19T06:24:41.419Z,92.30
2018-01-19T06:27:10.150Z,92.20
2018-01-19T06:29:38.928Z,92.40
2018-01-19T06:32:07.718Z,92.50
2018-01-19T06:34:36.422Z,92.50
2018-01-19T06:37:05.220Z,92.50
2018-01-19T06:39:34.763Z,92.60
2018-01-19T06:42:03.526Z,92.60
2018-01-19T06:44:33.072Z,92.50
2018-01-19T06:47:01.799Z,92.50
2018-01-19T06:49:31.198Z,92.40
2018-01-19T06:52:00.071Z,92.20
2018-01-19T06:54:28.763Z,92.30
2018-01-19T06:56:57.512Z,92.30
2018-01-19T06:59:26.979Z,92.20
2018-01-19T07:01:56.371Z,92.20
2018-01-19T07:04:25.083Z,92.50
2018-01-19T07:06:54.614Z,92.30
2018-01-19T07:09:23.295Z,92.30
2018-01-19T07:11:52.050Z,92.30
2018-01-19T07:14:20.748Z,92.10
2018-01-19T07:16:50.246Z,92.00
2018-01-19T07:19:19.737Z,91.90
2018-01-19T07:21:48.573Z,91.90
2018-01-19T07:24:17.325Z,91.80
2018-01-19T07:26:46.004Z,91.90
2018-01-19T07:29:14.741Z,91.90
2018-01-19T07:31:43.454Z,92.00
2018-01-19T07:34:12.214Z,91.80
2018-01-19T07:36:40.946Z,91.70
2018-01-19T07:39:09.614Z,91.70
2018-01-19T07:41:38.399Z,91.60
2018-01-19T07:44:07.201Z,91.50
2018-01-19T07:46:35.970Z,91.40
2018-01-19T07:49:04.429Z,91.10
2018-01-19T07:51:33.910Z,90.90
2018-01-19T07:54:02.650Z,90.90
2018-01-19T07:56:31.469Z,90.80
2018-01-19T07:59:00.229Z,90.90
2018-01-19T08:01:29.008Z,90.70
2018-01-19T08:03:58.585Z,91.00
2018-01-19T08:06:27.387Z,91.00
2018-01-19T08:08:56.118Z,91.10
2018-01-19T08:11:24.933Z,91.10
2018-01-19T08:13:54.470Z,91.10
2018-01-19T08:16:23.912Z,91.30
2018-01-19T08:18:52.634Z,91.30
2018-01-19T08:21:21.365Z,90.90
2018-01-19T08:23:50.044Z,90.80
2018-01-19T08:26:19.514Z,90.00
2018-01-19T08:28:48.197Z,90.00
2018-01-19T08:31:16.918Z,89.00
2018-01-19T08:33:46.390Z,88.50
2018-01-19T08:36:17.807Z,88.50
2018-01-19T08:38:46.549Z,89.40
2018-01-19T08:41:18.642Z,88.70
2018-01-19T08:43:47.963Z,88.60
2018-01-19T08:46:16.687Z,88.10
2018-01-19T08:48:45.465Z,86.70
2018-01-19T08:51:14.192Z,85.80
2018-01-19T08:53:47.109Z,79.90
2018-01-19T08:56:15.842Z,79.90
2018-01-19T08:58:44.522Z,78.10
2018-01-19T09:01:13.065Z,79.50
2018-01-19T09:03:41.880Z,77.30
2018-01-19T09:06:10.640Z,76.90
2018-01-19T09:08:40.161Z,77.70
2018-01-19T09:11:09.109Z,77.60
2018-01-19T09:13:38.637Z,77.60
2018-01-19T09:16:07.385Z,77.60
2018-01-19T09:18:36.110Z,78.30
2018-01-19T09:21:11.629Z,78.40
2018-01-19T09:26:34.261Z,77.30
2018-01-19T09:29:07.568Z,76.90
2018-01-19T09:44:34.826Z,75.10
2018-01-19T09:47:03.539Z,75.20
2018-01-19T09:49:33.051Z,75.30
2018-01-19T09:52:02.833Z,75.40
2018-01-19T09:54:31.578Z,75.30
2018-01-19T09:57:00.118Z,75.80
2018-01-19T09:59:37.502Z,76.00
2018-01-19T10:02:26.810Z,76.80
2018-01-19T10:04:56.441Z,78.10
2018-01-19T10:07:26.622Z,78.00
2018-01-19T10:09:55.440Z,78.30
2018-01-19T10:12:39.169Z,78.20
2018-01-19T10:15:08.020Z,78.30
2018-01-19T10:17:36.738Z,77.90
2018-01-19T10:20:05.501Z,78.00
2018-01-19T10:22:34.243Z,77.80
2018-01-19T10:39:07.500Z,75.50
2018-01-19T10:41:36.320Z,75.90
2018-01-19T10:44:05.429Z,76.20
2018-01-19T10:46:34.559Z,75.90
2018-01-19T10:49:03.165Z,76.30
2018-01-19T10:51:32.851Z,76.90
2018-01-19T10:54:01.700Z,76.90
2018-01-19T10:56:30.455Z,77.20
2018-01-19T10:58:59.117Z,77.90
2018-01-19T11:01:27.837Z,77.80
2018-01-19T11:03:57.304Z,77.30
2018-01-19T11:06:26.070Z,77.30
2018-01-19T11:08:54.807Z,76.30
2018-01-19T11:11:24.277Z,76.00
2018-01-19T11:13:52.973Z,75.90
2018-01-19T11:16:21.627Z,75.70
2018-01-19T11:18:50.272Z,75.80
2018-01-19T11:21:18.972Z,74.60
2018-01-19T11:23:48.616Z,75.50
2018-01-19T11:26:17.271Z,75.30
2018-01-19T11:28:46.714Z,75.10
2018-01-19T11:31:15.352Z,75.00
2018-01-19T11:33:44.803Z,73.40
2018-01-19T11:36:13.513Z,73.30
2018-01-19T11:38:42.172Z,72.80
2018-01-19T11:41:10.865Z,72.70
2018-01-19T11:43:39.753Z,72.60
2018-01-19T11:46:08.414Z,70.60
2018-01-19T11:48:37.057Z,70.50
2018-01-19T11:51:05.821Z,70.20
2018-01-19T11:53:34.493Z,70.00
2018-01-19T11:56:03.152Z,68.70
2018-01-19T11:58:31.828Z,67.20
2018-01-19T12:01:01.280Z,67.10
2018-01-19T12:03:30.125Z,67.10
2018-01-19T12:05:59.475Z,67.10
2018-01-19T12:08:28.178Z,65.60
2018-01-19T12:10:56.888Z,65.60
2018-01-19T12:13:25.541Z,65.20
2018-01-19T12:15:54.249Z,65.30
2018-01-19T12:18:22.930Z,63.50
2018-01-19T12:20:51.597Z,63.40
2018-01-19T12:23:20.280Z,62.70
2018-01-19T12:25:49.062Z,62.60
2018-01-19T12:28:18.493Z,62.80
2018-01-19T12:30:47.181Z,62.80
2018-01-19T12:33:15.890Z,61.40
2018-01-19T12:35:44.554Z,62.20
2018-01-19T12:38:13.229Z,62.00
2018-01-19T12:40:41.945Z,61.50
2018-01-19T12:43:10.830Z,62.10
2018-01-19T12:45:39.543Z,62.60
2018-01-19T12:48:09.014Z,62.00
2018-01-19T12:50:37.661Z,61.90
2018-01-19T12:53:06.358Z,61.10
2018-01-19T12:55:35.022Z,60.40
2018-01-19T12:58:03.712Z,59.20
2018-01-19T13:00:32.373Z,59.40
2018-01-19T13:03:01.064Z,58.10
2018-01-19T13:05:29.967Z,58.40
2018-01-19T13:07:59.424Z,58.10
2018-01-19T13:10:28.165Z,58.00
2018-01-19T13:12:56.840Z,57.40
2018-01-19T13:15:26.284Z,55.40
2018-01-19T13:17:55.017Z,55.40
2018-01-19T13:20:23.698Z,54.50
2018-01-19T13:22:52.424Z,55.20
2018-01-19T13:25:21.225Z,52.80
2018-01-19T13:27:49.905Z,53.20
2018-01-19T13:30:18.282Z,52.40
2018-01-19T13:32:47.065Z,52.50
2018-01-19T13:35:15.814Z,52.70
2018-01-19T13:37:44.539Z,54.10
2018-01-19T13:40:14.033Z,53.90
2018-01-19T13:42:43.541Z,54.90
2018-01-19T13:45:12.983Z,54.30
2018-01-19T13:47:41.716Z,54.30
2018-01-19T13:50:10.468Z,54.50
2018-01-19T13:52:39.180Z,53.70
2018-01-19T13:55:07.924Z,53.40
2018-01-19T13:57:36.637Z,53.40
2018-01-19T14:00:05.009Z,50.30
2018-01-19T14:02:33.718Z,49.70
2018-01-19T14:05:02.442Z,47.20
2018-01-19T14:07:31.914Z,47.60
2018-01-19T14:10:00.603Z,47.60
2018-01-19T14:12:29.360Z,47.70
2018-01-19T14:14:58.236Z,50.50
2018-01-19T14:17:26.957Z,49.00
2018-01-19T14:19:55.671Z,47.50
2018-01-19T14:22:24.458Z,46.80
2018-01-19T14:24:53.930Z,44.30
2018-01-19T14:27:22.648Z,44.20
2018-01-19T14:29:51.370Z,40.80
2018-01-19T14:32:20.060Z,48.00
2018-01-19T14:34:48.766Z,50.90
2018-01-19T14:37:17.616Z,51.20
2018-01-19T14:39:47.112Z,55.20
2018-01-19T14:42:15.829Z,55.30
2018-01-19T14:44:44.570Z,56.80
2018-01-19T14:47:13.245Z,59.50
2018-01-19T14:49:41.968Z,60.50
2018-01-19T14:52:10.711Z,62.50
2018-01-19T14:54:39.435Z,64.50
2018-01-19T14:57:08.158Z,65.50
2018-01-19T14:59:36.944Z,64.40
2018-01-19T15:02:06.449Z,65.00
2018-01-19T15:04:35.151Z,64.90
2018-01-19T15:07:03.925Z,66.60
2018-01-19T15:09:32.666Z,66.80
2018-01-19T15:12:01.370Z,66.60
2018-01-19T15:14:30.173Z,57.30
2018-01-19T15:16:59.666Z,53.30
2018-01-19T15:19:28.361Z,53.30
2018-01-19T15:21:57.896Z,54.10
2018-01-19T15:24:26.591Z,54.00
2018-01-19T15:26:55.295Z,53.80
2018-01-19T15:29:24.038Z,49.80
2018-01-19T15:31:53.536Z,47.60
2018-01-19T15:34:22.229Z,47.60
2018-01-19T15:36:51.029Z,48.30
2018-01-19T15:39:20.510Z,47.80
2018-01-19T15:41:49.199Z,48.30
2018-01-19T15:44:17.938Z,46.50
2018-01-19T15:46:46.688Z,45.10
2018-01-19T15:49:15.353Z,45.60
2018-01-19T15:51:43.902Z,45.20
2018-01-19T15:54:12.874Z,46.50
2018-01-19T15:56:41.608Z,48.20
2018-01-19T15:59:10.431Z,48.40
2018-01-19T16:01:39.121Z,47.70
2018-01-19T16:04:07.835Z,48.40
2018-01-19T16:06:36.617Z,51.40
2018-01-19T16:09:04.677Z,52.00
2018-01-19T16:11:33.966Z,57.00
2018-01-19T16:14:03.474Z,60.10
2018-01-19T16:16:32.775Z,59.00
2018-01-19T16:19:02.258Z,61.80
2018-01-19T16:21:31.033Z,61.80
2018-01-19T16:23:59.736Z,62.50
2018-01-19T16:26:28.669Z,64.30
2018-01-19T16:28:57.399Z,65.80
2018-01-19T16:31:26.173Z,64.60
2018-01-19T16:33:54.909Z,66.80
2018-01-19T16:36:24.423Z,66.80
2018-01-19T16:38:53.285Z,66.80
2018-01-19T16:41:21.961Z,68.10
2018-01-19T16:43:50.485Z,68.90
2018-01-19T16:46:19.173Z,68.90
2018-01-19T16:48:48.674Z,67.30
2018-01-19T16:51:18.177Z,67.80
2018-01-19T16:53:46.863Z,67.80
2018-01-19T16:56:16.378Z,70.10
2018-01-19T16:58:45.853Z,69.20
2018-01-19T17:01:14.549Z,69.20
2018-01-19T17:03:43.254Z,70.40
2018-01-19T17:06:11.917Z,68.10
2018-01-19T17:08:40.666Z,69.00
2018-01-19T17:11:09.386Z,69.50
2018-01-19T17:13:38.129Z,69.20
2018-01-19T17:16:06.880Z,70.10
2018-01-19T17:18:35.606Z,70.30
2018-01-19T17:21:04.139Z,70.70
2018-01-19T17:23:32.870Z,72.40
2018-01-19T17:26:01.590Z,71.80
2018-01-19T17:28:30.305Z,71.70
2018-01-19T17:30:58.982Z,72.50
2018-01-19T17:33:27.693Z,73.00
2018-01-19T17:35:57.201Z,72.60
2018-01-19T17:38:26.629Z,73.60
2018-01-19T17:40:55.327Z,73.50
2018-01-19T17:43:24.049Z,74.30
2018-01-19T17:45:52.794Z,74.80
2018-01-19T17:48:21.534Z,74.80
2018-01-19T17:50:51.132Z,75.00
2018-01-19T17:53:19.822Z,75.40
2018-01-19T17:55:48.525Z,75.10
2018-01-19T17:58:17.201Z,75.30
2018-01-19T18:00:45.873Z,75.90
2018-01-19T18:03:16.828Z,75.70
2018-01-19T18:05:45.489Z,75.70
2018-01-19T18:08:14.161Z,76.10
2018-01-19T18:10:42.869Z,76.50
2018-01-19T18:13:11.525Z,76.00
2018-01-19T18:15:40.213Z,76.30
2018-01-19T18:18:08.897Z,77.00
2018-01-19T18:20:37.592Z,76.60
2018-01-19T18:23:06.253Z,77.40
2018-01-19T18:25:35.760Z,77.90
2018-01-19T18:28:05.189Z,77.50
2018-01-19T18:30:33.853Z,77.50
2018-01-19T18:33:03.375Z,78.00
2018-01-19T18:35:32.043Z,78.00
2018-01-19T18:38:00.733Z,79.10
2018-01-19T18:40:30.434Z,79.40
2018-01-19T18:42:59.089Z,79.20
2018-01-19T18:45:27.742Z,79.40
2018-01-19T18:47:56.436Z,79.70
2018-01-19T18:50:25.132Z,79.60
2018-01-19T18:52:53.794Z,80.30
2018-01-19T18:55:23.333Z,80.70
2018-01-19T18:57:52.142Z,80.50
2018-01-19T19:00:20.830Z,80.80
2018-01-19T19:02:49.557Z,81.60
2018-01-19T19:05:19.005Z,82.30
2018-01-19T19:07:47.708Z,82.30
2018-01-19T19:10:16.422Z,83.00
2018-01-19T19:12:45.849Z,82.30
2018-01-19T19:15:14.523Z,82.30
2018-01-19T19:17:43.218Z,82.30
2018-01-19T19:20:11.866Z,82.70
2018-01-19T19:22:40.776Z,83.10
2018-01-19T19:25:10.311Z,82.70
2018-01-19T19:27:39.216Z,82.70
2018-01-19T19:30:07.882Z,82.80
2018-01-19T19:32:36.438Z,82.70
2018-01-19T19:35:05.707Z,82.90
2018-01-19T19:37:34.566Z,82.90
2018-01-19T19:40:03.373Z,83.20
2018-01-19T19:42:32.036Z,83.50
2018-01-19T19:45:00.726Z,83.50
2018-01-19T19:47:29.418Z,83.70
2018-01-19T19:49:58.089Z,83.90
2018-01-19T19:52:26.842Z,84.70
2018-01-19T19:54:55.633Z,84.30
2018-01-19T19:57:24.338Z,85.00
2018-01-19T19:59:53.774Z,84.80
2018-01-19T20:02:22.514Z,84.80
2018-01-19T20:04:51.177Z,84.90
2018-01-19T20:07:19.869Z,85.00
2018-01-19T20:09:48.680Z,85.30
2018-01-19T20:12:17.342Z,85.80
2018-01-19T20:14:46.017Z,85.90
2018-01-19T20:17:14.734Z,87.10
2018-01-19T20:19:43.402Z,87.00
2018-01-19T20:22:12.094Z,86.60
2018-01-19T20:24:40.834Z,86.30
2018-01-19T20:27:09.574Z,86.70
2018-01-19T20:29:38.325Z,87.00
2018-01-19T20:32:07.020Z,87.20
2018-01-19T20:34:36.510Z,87.50
2018-01-19T20:37:05.230Z,87.40
2018-01-19T20:39:33.938Z,87.20
2018-01-19T20:42:02.809Z,87.30
2018-01-19T20:44:31.533Z,87.20
2018-01-19T20:47:01.112Z,87.00
2018-01-19T20:49:29.843Z,87.00
2018-01-19T20:51:59.340Z,87.10
2018-01-19T20:54:28.770Z,87.80
2018-01-19T20:56:57.492Z,87.60
2018-01-19T20:59:26.285Z,87.60
2018-01-19T21:01:54.991Z,87.40
2018-01-19T21:04:23.754Z,87.30
2018-01-19T21:06:52.340Z,87.40
2018-01-19T21:09:20.923Z,87.80
2018-01-19T21:11:49.641Z,88.20
2018-01-19T21:14:18.358Z,87.90
2018-01-19T21:16:47.026Z,87.80
2018-01-19T21:19:15.726Z,88.60
2018-01-19T21:21:45.253Z,88.50
2018-01-19T21:24:14.125Z,88.50
2018-01-19T21:26:42.809Z,88.10
2018-01-19T21:29:12.321Z,87.40
2018-01-19T21:31:41.077Z,87.40
2018-01-19T21:34:10.539Z,88.00
2018-01-19T21:36:38.952Z,88.00
2018-01-19T21:39:07.713Z,87.60
2018-01-19T21:41:36.614Z,87.80
2018-01-19T21:44:05.338Z,88.50
2018-01-19T21:46:34.029Z,89.10
2018-01-19T21:49:02.779Z,88.90
2018-01-19T21:51:31.506Z,88.00
2018-01-19T21:54:00.276Z,88.10
2018-01-19T21:56:29.138Z,87.60
2018-01-19T21:58:57.801Z,87.70
2018-01-19T22:01:26.546Z,88.00
2018-01-19T22:03:55.444Z,88.40
2018-01-19T22:06:24.151Z,88.80
2018-01-19T22:08:53.665Z,89.00
2018-01-19T22:11:23.094Z,88.80
2018-01-19T22:13:51.770Z,88.70
2018-01-19T22:16:20.458Z,88.40
2018-01-19T22:18:49.134Z,88.80
2018-01-19T22:21:18.593Z,89.00
2018-01-19T22:23:47.351Z,89.00
2018-01-19T22:26:16.025Z,89.00
2018-01-19T22:28:44.770Z,89.70
2018-01-19T22:31:13.505Z,90.00
2018-01-19T22:33:44.523Z,90.10
2018-01-19T22:36:13.034Z,90.10
2018-01-19T22:38:41.705Z,90.00
2018-01-19T22:41:10.401Z,89.50
2018-01-19T22:43:39.145Z,89.70
2018-01-19T22:46:07.825Z,89.90
2018-01-19T22:48:36.562Z,89.30
2018-01-19T22:51:05.252Z,89.30
2018-01-19T22:53:33.958Z,90.00
2018-01-19T22:56:02.809Z,90.10
2018-01-19T22:58:32.297Z,89.80
2018-01-19T23:01:01.029Z,89.80
2018-01-19T23:03:29.697Z,89.60
2018-01-19T23:05:58.360Z,90.10
2018-01-19T23:08:27.088Z,89.90
2018-01-19T23:10:55.819Z,89.80
2018-01-19T23:13:24.557Z,89.40
2018-01-19T23:15:53.434Z,89.40
2018-01-19T23:18:22.118Z,89.70
2018-01-19T23:20:51.549Z,89.50
2018-01-19T23:23:20.232Z,89.50
2018-01-19T23:25:48.949Z,89.30
2018-01-19T23:28:18.377Z,89.50
2018-01-19T23:30:46.758Z,89.50
2018-01-19T23:33:15.437Z,89.80
2018-01-19T23:35:43.924Z,90.00
2018-01-19T23:38:12.634Z,90.10
2018-01-19T23:40:41.496Z,90.10
2018-01-19T23:43:10.301Z,89.70
2018-01-19T23:45:39.028Z,89.70
2018-01-19T23:48:07.718Z,89.30
2018-01-19T23:50:36.388Z,89.10
2018-01-19T23:53:05.870Z,89.40
2018-01-19T23:55:35.309Z,89.50
2018-01-19T23:58:04.260Z,89.50
